createdAt,value
2023-04-27T00:00:11.491Z,101327.38
2023-04-27T00:00:33.167Z,101327.41
2023-04-27T00:00:56.000Z,101325.66
2023-04-27T00:01:17.669Z,101328.44
2023-04-27T00:01:39.415Z,101328.28
2023-04-27T00:02:01.933Z,101330.91
2023-04-27T00:02:23.902Z,101333.50
2023-04-27T00:02:46.799Z,101333.59
2023-04-27T00:03:08.770Z,101325.56
2023-04-27T00:03:30.940Z,101302.94
2023-04-27T00:03:53.326Z,101330.91
2023-04-27T00:04:16.645Z,101332.63
2023-04-27T00:04:38.793Z,101336.22
2023-04-27T00:05:02.516Z,101318.72
2023-04-27T00:05:24.583Z,101326.41
2023-04-27T00:05:47.393Z,101329.91
2023-04-27T00:06:09.645Z,101332.50
2023-04-27T00:06:32.536Z,101328.16
2023-04-27T00:06:54.357Z,101332.63
2023-04-27T00:07:15.939Z,101324.84
2023-04-27T00:07:38.558Z,101334.59
2023-04-27T00:08:00.245Z,101331.13
2023-04-27T00:08:22.080Z,101328.53
2023-04-27T00:08:43.925Z,101329.44
2023-04-27T00:09:06.746Z,101331.19
2023-04-27T00:09:28.296Z,101332.84
2023-04-27T00:09:51.770Z,101334.53
2023-04-27T00:10:15.748Z,101337.19
2023-04-27T00:10:37.443Z,101330.91
2023-04-27T00:10:59.383Z,101335.31
2023-04-27T00:11:22.576Z,101334.50
2023-04-27T00:11:45.314Z,101330.91
2023-04-27T00:12:07.073Z,101326.50
2023-04-27T00:12:28.937Z,101344.22
2023-04-27T00:12:51.564Z,101318.78
2023-04-27T00:13:58.762Z,101340.00
2023-04-27T00:14:21.529Z,101332.00
2023-04-27T00:14:43.226Z,101332.91
2023-04-27T00:15:05.963Z,101333.78
2023-04-27T00:15:27.854Z,101332.97
2023-04-27T00:15:50.609Z,101341.00
2023-04-27T00:16:12.293Z,101333.09
2023-04-27T00:16:34.128Z,101332.28
2023-04-27T00:16:56.234Z,101339.38
2023-04-27T00:17:18.823Z,101344.75
2023-04-27T00:17:40.900Z,101342.00
2023-04-27T00:18:02.717Z,101333.94
2023-04-27T00:18:24.404Z,101333.09
2023-04-27T00:18:46.003Z,101337.59
2023-04-27T00:19:08.949Z,101336.63
2023-04-27T00:19:30.696Z,101323.44
2023-04-27T00:19:52.364Z,101334.94
2023-04-27T00:20:14.117Z,101333.09
2023-04-27T00:20:36.681Z,101330.38
2023-04-27T00:20:58.515Z,101315.69
2023-04-27T00:21:20.646Z,101332.16
2023-04-27T00:21:42.568Z,101335.78
2023-04-27T00:22:05.173Z,101331.25
2023-04-27T00:22:26.846Z,101339.19
2023-04-27T00:22:48.473Z,101333.09
2023-04-27T00:23:10.296Z,101330.44
2023-04-27T00:23:32.865Z,101321.00
2023-04-27T00:23:54.720Z,101330.44
2023-04-27T00:24:16.431Z,101336.59
2023-04-27T00:24:38.069Z,101332.97
2023-04-27T00:25:00.778Z,101333.78
2023-04-27T00:25:23.728Z,101335.56
2023-04-27T00:25:45.400Z,101333.84
2023-04-27T00:26:07.075Z,101331.13
2023-04-27T00:26:29.618Z,101331.94
2023-04-27T00:26:51.366Z,101335.41
2023-04-27T00:27:13.518Z,101332.84
2023-04-27T00:27:35.682Z,101329.31
2023-04-27T00:27:59.699Z,101336.25
2023-04-27T00:28:21.605Z,101335.31
2023-04-27T00:28:43.189Z,101337.97
2023-04-27T00:29:04.799Z,101333.53
2023-04-27T00:29:27.460Z,101334.50
2023-04-27T00:29:49.305Z,101332.78
2023-04-27T00:30:11.367Z,101329.09
2023-04-27T00:30:32.983Z,101340.59
2023-04-27T00:30:56.517Z,101329.97
2023-04-27T00:31:19.460Z,101330.91
2023-04-27T00:31:41.093Z,101336.22
2023-04-27T00:32:02.860Z,101344.03
2023-04-27T00:32:25.650Z,101344.13
2023-04-27T00:32:47.876Z,101343.28
2023-04-27T00:33:11.282Z,101345.94
2023-04-27T00:33:32.855Z,101328.56
2023-04-27T00:33:55.415Z,101338.16
2023-04-27T00:34:18.226Z,101334.75
2023-04-27T00:34:42.494Z,101342.69
2023-04-27T00:35:04.688Z,101346.22
2023-04-27T00:35:27.581Z,101338.34
2023-04-27T00:35:49.220Z,101347.22
2023-04-27T00:36:10.909Z,101347.28
2023-04-27T00:36:33.674Z,101343.69
2023-04-27T00:36:56.271Z,101350.88
2023-04-27T00:37:18.707Z,101345.47
2023-04-27T00:37:41.057Z,101341.00
2023-04-27T00:38:03.088Z,101344.59
2023-04-27T00:38:26.142Z,101344.59
2023-04-27T00:38:47.794Z,101337.69
2023-04-27T00:39:09.523Z,101337.50
2023-04-27T00:39:34.235Z,101349.03
2023-04-27T00:39:56.293Z,101344.66
2023-04-27T00:40:19.082Z,101340.25
2023-04-27T00:40:43.090Z,101339.38
2023-04-27T00:41:06.539Z,101336.75
2023-04-27T00:41:28.175Z,101341.28
2023-04-27T00:41:49.865Z,101343.06
2023-04-27T00:42:15.152Z,101342.22
2023-04-27T00:42:37.772Z,101344.75
2023-04-27T00:42:59.474Z,101343.78
2023-04-27T00:43:21.192Z,101333.91
2023-04-27T00:43:44.365Z,101337.47
2023-04-27T00:44:06.328Z,101341.00
2023-04-27T00:44:30.233Z,101339.34
2023-04-27T00:44:51.818Z,101349.16
2023-04-27T00:45:14.367Z,101343.03
2023-04-27T00:45:41.422Z,101340.50
2023-04-27T00:46:04.461Z,101347.41
2023-04-27T00:46:27.866Z,101341.28
2023-04-27T00:46:49.812Z,101340.25
2023-04-27T00:47:12.176Z,101313.19
2023-04-27T00:47:35.786Z,101345.53
2023-04-27T00:47:58.592Z,101335.78
2023-04-27T00:48:20.796Z,101333.09
2023-04-27T00:48:43.047Z,101345.47
2023-04-27T00:49:05.827Z,101339.28
2023-04-27T00:49:27.814Z,101346.50
2023-04-27T00:49:49.592Z,101345.59
2023-04-27T00:50:12.159Z,101340.41
2023-04-27T00:50:34.790Z,101346.59
2023-04-27T00:50:57.474Z,101341.16
2023-04-27T00:51:19.213Z,101346.59
2023-04-27T00:51:40.908Z,101330.78
2023-04-27T00:52:02.931Z,101342.22
2023-04-27T00:52:27.803Z,101332.59
2023-04-27T00:52:49.779Z,101343.94
2023-04-27T00:53:11.942Z,101343.09
2023-04-27T00:53:36.110Z,101346.53
2023-04-27T00:53:59.646Z,101343.88
2023-04-27T00:54:21.369Z,101343.88
2023-04-27T00:54:43.339Z,101341.28
2023-04-27T00:55:08.359Z,101344.75
2023-04-27T00:55:30.914Z,101338.59
2023-04-27T00:55:55.376Z,101343.09
2023-04-27T00:56:17.496Z,101340.38
2023-04-27T00:56:39.406Z,101348.47
2023-04-27T00:57:02.284Z,101343.97
2023-04-27T00:57:23.880Z,101335.19
2023-04-27T00:57:45.565Z,101343.09
2023-04-27T00:58:09.277Z,101344.00
2023-04-27T00:58:31.242Z,101341.41
2023-04-27T00:58:53.571Z,101347.63
2023-04-27T00:59:15.983Z,101345.75
2023-04-27T00:59:38.620Z,101343.88
2023-04-27T01:00:01.016Z,101326.31
2023-04-27T01:00:23.075Z,101320.03
2023-04-27T01:00:44.677Z,101309.75
2023-04-27T01:01:07.696Z,101331.44
2023-04-27T01:01:30.345Z,101333.19
2023-04-27T01:01:53.044Z,101337.59
2023-04-27T01:02:15.039Z,101332.53
2023-04-27T01:02:37.117Z,101327.88
2023-04-27T01:03:01.211Z,101334.16
2023-04-27T01:03:23.259Z,101326.16
2023-04-27T01:03:45.310Z,101345.69
2023-04-27T01:04:07.167Z,101337.69
2023-04-27T01:04:29.992Z,101339.47
2023-04-27T01:04:53.966Z,101342.06
2023-04-27T01:05:15.742Z,101334.28
2023-04-27T01:05:38.085Z,101332.56
2023-04-27T01:06:01.612Z,101339.63
2023-04-27T01:06:24.477Z,101340.53
2023-04-27T01:06:46.226Z,101326.47
2023-04-27T01:07:08.018Z,101333.47
2023-04-27T01:07:30.686Z,101336.25
2023-04-27T01:07:53.116Z,101334.41
2023-04-27T01:08:14.944Z,101337.00
2023-04-27T01:08:37.756Z,101337.13
2023-04-27T01:09:00.466Z,101338.03
2023-04-27T01:09:23.310Z,101330.00
2023-04-27T01:09:45.202Z,101322.22
2023-04-27T01:10:08.766Z,101331.09
2023-04-27T01:10:31.531Z,101331.97
2023-04-27T01:10:54.567Z,101339.06
2023-04-27T01:11:17.211Z,101335.53
2023-04-27T01:11:38.837Z,101342.63
2023-04-27T01:12:03.282Z,101341.75
2023-04-27T01:12:25.243Z,101348.84
2023-04-27T01:12:47.737Z,101345.22
2023-04-27T01:13:10.648Z,101341.59
2023-04-27T01:13:34.416Z,101341.53
2023-04-27T01:13:56.979Z,101343.22
2023-04-27T01:14:21.005Z,101336.34
2023-04-27T01:14:42.952Z,101340.69
2023-04-27T01:15:07.512Z,101345.00
2023-04-27T01:15:29.409Z,101348.66
2023-04-27T01:15:51.040Z,101345.16
2023-04-27T01:16:13.087Z,101347.81
2023-04-27T01:16:36.121Z,101345.25
2023-04-27T01:16:58.197Z,101345.28
2023-04-27T01:17:19.810Z,101348.03
2023-04-27T01:17:42.964Z,101344.53
2023-04-27T01:18:05.766Z,101347.22
2023-04-27T01:18:27.452Z,101342.81
2023-04-27T01:18:51.418Z,101343.72
2023-04-27T01:19:13.506Z,101336.78
2023-04-27T01:19:36.539Z,101342.00
2023-04-27T01:19:59.604Z,101350.94
2023-04-27T01:20:22.160Z,101345.66
2023-04-27T01:20:45.072Z,101342.00
2023-04-27T01:21:07.262Z,101349.19
2023-04-27T01:21:30.073Z,101345.66
2023-04-27T01:21:53.592Z,101342.19
2023-04-27T01:22:15.432Z,101344.03
2023-04-27T01:22:37.213Z,101344.03
2023-04-27T01:23:00.327Z,101351.13
2023-04-27T01:23:24.004Z,101344.91
2023-04-27T01:23:46.269Z,101347.56
2023-04-27T01:24:09.021Z,101347.53
2023-04-27T01:24:33.435Z,101357.22
2023-04-27T01:24:55.196Z,101346.69
2023-04-27T01:25:20.130Z,101351.16
2023-04-27T01:25:41.784Z,101344.03
2023-04-27T01:26:04.724Z,101350.13
2023-04-27T01:26:26.800Z,101346.56
2023-04-27T01:26:51.965Z,101341.31
2023-04-27T01:27:13.845Z,101330.72
2023-04-27T01:27:36.942Z,101339.41
2023-04-27T01:27:58.595Z,101342.09
2023-04-27T01:28:20.424Z,101339.53
2023-04-27T01:28:42.001Z,101344.75
2023-04-27T01:29:04.202Z,101347.34
2023-04-27T01:29:26.828Z,101347.34
2023-04-27T01:29:48.625Z,101338.66
2023-04-27T01:30:10.621Z,101329.13
2023-04-27T01:30:32.228Z,101342.09
2023-04-27T01:30:55.147Z,101342.09
2023-04-27T01:31:20.673Z,101342.09
2023-04-27T01:31:43.444Z,101331.44
2023-04-27T01:32:05.688Z,101342.97
2023-04-27T01:32:28.359Z,101341.19
2023-04-27T01:32:50.468Z,101340.34
2023-04-27T01:33:14.197Z,101337.72
2023-04-27T01:33:35.934Z,101342.13
2023-04-27T01:33:58.450Z,101340.34
2023-04-27T01:34:20.075Z,101337.72
2023-04-27T01:34:42.600Z,101337.72
2023-04-27T01:35:04.910Z,101339.53
2023-04-27T01:35:28.458Z,101344.75
2023-04-27T01:35:54.757Z,101342.00
2023-04-27T01:36:16.775Z,101342.00
2023-04-27T01:36:38.525Z,101345.63
2023-04-27T01:37:01.085Z,101345.66
2023-04-27T01:37:23.056Z,101337.78
2023-04-27T01:37:45.990Z,101337.72
2023-04-27T01:38:07.611Z,101346.66
2023-04-27T01:38:33.312Z,101348.47
2023-04-27T01:38:54.967Z,101339.59
2023-04-27T01:39:16.675Z,101348.59
2023-04-27T01:39:38.771Z,101332.75
2023-04-27T01:40:03.036Z,101338.78
2023-04-27T01:40:29.912Z,101338.78
2023-04-27T01:40:51.551Z,101343.25
2023-04-27T01:41:15.658Z,101345.84
2023-04-27T01:41:37.355Z,101344.13
2023-04-27T01:41:58.980Z,101335.25
2023-04-27T01:42:21.579Z,101339.69
2023-04-27T01:42:43.181Z,101337.84
2023-04-27T01:43:05.192Z,101342.34
2023-04-27T01:43:26.906Z,101339.69
2023-04-27T01:43:49.957Z,101330.22
2023-04-27T01:44:11.994Z,101340.69
2023-04-27T01:44:33.737Z,101341.50
2023-04-27T01:44:55.368Z,101338.03
2023-04-27T01:45:17.002Z,101343.16
2023-04-27T01:45:39.641Z,101344.28
2023-04-27T01:46:06.057Z,101344.31
2023-04-27T01:46:27.865Z,101344.31
2023-04-27T01:46:49.654Z,101340.91
2023-04-27T01:47:12.573Z,101336.34
2023-04-27T01:47:35.582Z,101342.50
2023-04-27T01:47:57.307Z,101341.63
2023-04-27T01:48:19.138Z,101332.94
2023-04-27T01:48:42.399Z,101342.63
2023-04-27T01:49:05.971Z,101354.97
2023-04-27T01:49:27.874Z,101344.31
2023-04-27T01:49:51.202Z,101349.75
2023-04-27T01:50:15.016Z,101347.09
2023-04-27T01:50:36.646Z,101350.72
2023-04-27T01:50:58.277Z,101347.09
2023-04-27T01:51:20.581Z,101349.75
2023-04-27T01:51:43.258Z,101351.50
2023-04-27T01:52:04.853Z,101355.16
2023-04-27T01:52:28.695Z,101346.28
2023-04-27T01:52:50.619Z,101354.31
2023-04-27T01:53:13.286Z,101354.34
2023-04-27T01:53:36.301Z,101356.22
2023-04-27T01:53:58.116Z,101356.13
2023-04-27T01:54:20.719Z,101354.56
2023-04-27T01:54:42.590Z,101353.56
2023-04-27T01:55:06.272Z,101296.03
2023-04-27T01:55:28.230Z,101352.66
2023-04-27T01:55:49.948Z,101357.13
2023-04-27T01:56:12.790Z,101361.53
2023-04-27T01:56:35.077Z,101338.75
2023-04-27T01:56:58.617Z,101351.78
2023-04-27T01:57:20.311Z,101354.53
2023-04-27T01:57:43.045Z,101356.31
2023-04-27T01:58:04.766Z,101352.88
2023-04-27T01:58:27.599Z,101347.56
2023-04-27T01:58:49.270Z,101355.53
2023-04-27T01:59:11.328Z,101351.97
2023-04-27T01:59:34.031Z,101352.00
2023-04-27T01:59:57.145Z,101350.28
2023-04-27T02:00:19.543Z,101354.56
2023-04-27T02:00:43.966Z,101354.53
2023-04-27T02:01:06.627Z,101350.13
2023-04-27T02:01:28.299Z,101355.41
2023-04-27T02:01:50.036Z,101343.81
2023-04-27T02:02:11.707Z,101355.41
2023-04-27T02:02:33.657Z,101354.63
2023-04-27T02:02:57.422Z,101343.94
2023-04-27T02:03:19.475Z,101355.53
2023-04-27T02:03:41.783Z,101358.22
2023-04-27T02:04:04.284Z,101352.91
2023-04-27T02:04:27.260Z,101351.13
2023-04-27T02:04:49.068Z,101350.28
2023-04-27T02:05:10.882Z,101352.06
2023-04-27T02:05:32.466Z,101351.22
2023-04-27T02:05:55.394Z,101352.19
2023-04-27T02:06:17.211Z,101359.22
2023-04-27T02:06:41.168Z,101356.56
2023-04-27T02:07:03.038Z,101356.56
2023-04-27T02:07:25.610Z,101358.44
2023-04-27T02:07:47.203Z,101359.28
2023-04-27T02:08:08.839Z,101345.38
2023-04-27T02:08:30.561Z,101359.28
2023-04-27T02:08:53.623Z,101357.50
2023-04-27T02:09:16.501Z,101357.50
2023-04-27T02:09:38.244Z,101349.59
2023-04-27T02:09:59.894Z,101356.75
2023-04-27T02:10:22.161Z,101357.63
2023-04-27T02:10:44.759Z,101352.28
2023-04-27T02:11:06.402Z,101352.34
2023-04-27T02:11:28.146Z,101354.16
2023-04-27T02:11:49.785Z,101359.53
2023-04-27T02:12:11.617Z,101353.47
2023-04-27T02:12:34.206Z,101359.66
2023-04-27T02:12:56.906Z,101357.03
2023-04-27T02:13:18.613Z,101354.38
2023-04-27T02:13:40.423Z,101359.69
2023-04-27T02:14:03.177Z,101351.88
2023-04-27T02:14:27.924Z,101360.56
2023-04-27T02:14:49.522Z,101358.03
2023-04-27T02:15:11.188Z,101365.13
2023-04-27T02:15:33.247Z,101356.31
2023-04-27T02:15:56.188Z,101357.94
2023-04-27T02:16:18.017Z,101357.94
2023-04-27T02:16:39.754Z,101352.69
2023-04-27T02:17:01.425Z,101361.47
2023-04-27T02:17:24.055Z,101354.38
2023-04-27T02:17:46.820Z,101360.63
2023-04-27T02:18:08.967Z,101360.56
2023-04-27T02:18:32.472Z,101364.22
2023-04-27T02:18:55.509Z,101349.22
2023-04-27T02:19:17.181Z,101358.06
2023-04-27T02:19:38.916Z,101356.16
2023-04-27T02:20:00.866Z,101358.13
2023-04-27T02:20:23.662Z,101352.75
2023-04-27T02:20:45.493Z,101350.97
2023-04-27T02:21:09.364Z,101358.97
2023-04-27T02:21:31.526Z,101355.47
2023-04-27T02:21:54.104Z,101352.84
2023-04-27T02:22:16.227Z,101356.31
2023-04-27T02:22:41.797Z,101350.19
2023-04-27T02:23:04.430Z,101349.22
2023-04-27T02:23:26.187Z,101337.94
2023-04-27T02:23:48.032Z,101358.94
2023-04-27T02:24:11.015Z,101360.81
2023-04-27T02:24:33.898Z,101351.97
2023-04-27T02:24:55.819Z,101352.91
2023-04-27T02:25:17.531Z,101356.53
2023-04-27T02:25:42.748Z,101354.81
2023-04-27T02:26:05.832Z,101340.91
2023-04-27T02:26:29.441Z,101354.88
2023-04-27T02:26:52.147Z,101354.88
2023-04-27T02:27:13.746Z,101348.66
2023-04-27T02:27:38.332Z,101350.41
2023-04-27T02:28:00.882Z,101356.63
2023-04-27T02:28:22.914Z,101351.38
2023-04-27T02:28:45.154Z,101355.88
2023-04-27T02:29:08.163Z,101357.72
2023-04-27T02:29:32.339Z,101349.78
2023-04-27T02:29:54.292Z,101357.75
2023-04-27T02:30:17.900Z,101356.84
2023-04-27T02:30:41.171Z,101354.22
2023-04-27T02:31:04.266Z,101359.63
2023-04-27T02:31:26.249Z,101349.09
2023-04-27T02:31:47.980Z,101343.94
2023-04-27T02:32:09.733Z,101358.09
2023-04-27T02:32:33.295Z,101356.22
2023-04-27T02:32:55.037Z,101352.66
2023-04-27T02:33:17.147Z,101357.09
2023-04-27T02:33:39.081Z,101362.41
2023-04-27T02:34:01.755Z,101353.53
2023-04-27T02:34:23.462Z,101360.59
2023-04-27T02:34:46.466Z,101367.69
2023-04-27T02:35:09.534Z,101356.22
2023-04-27T02:35:33.561Z,101351.78
2023-04-27T02:35:55.316Z,101362.28
2023-04-27T02:36:16.931Z,101356.94
2023-04-27T02:36:38.573Z,101354.28
2023-04-27T02:37:01.304Z,101357.75
2023-04-27T02:37:22.970Z,101360.41
2023-04-27T02:37:44.780Z,101354.28
2023-04-27T02:38:10.338Z,101360.41
2023-04-27T02:38:34.112Z,101353.47
2023-04-27T02:38:56.040Z,101350.81
2023-04-27T02:39:18.969Z,101355.19
2023-04-27T02:39:40.632Z,101360.59
2023-04-27T02:40:03.984Z,101354.38
2023-04-27T02:40:28.354Z,101350.03
2023-04-27T02:40:53.666Z,101358.84
2023-04-27T02:41:16.306Z,101352.63
2023-04-27T02:41:37.928Z,101356.31
2023-04-27T02:41:59.772Z,101360.66
2023-04-27T02:42:21.981Z,101358.00
2023-04-27T02:42:44.633Z,101354.44
2023-04-27T02:43:06.220Z,101337.00
2023-04-27T02:43:27.887Z,101358.97
2023-04-27T02:43:50.452Z,101363.41
2023-04-27T02:44:13.356Z,101344.94
2023-04-27T02:44:34.988Z,101358.06
2023-04-27T02:44:56.795Z,101357.16
2023-04-27T02:45:18.464Z,101360.63
2023-04-27T02:45:41.414Z,101354.50
2023-04-27T02:46:03.271Z,101358.94
2023-04-27T02:46:27.084Z,101358.06
2023-04-27T02:46:50.015Z,101344.03
2023-04-27T02:47:12.811Z,101355.31
2023-04-27T02:47:36.070Z,101350.84
2023-04-27T02:47:58.295Z,101352.63
2023-04-27T02:48:20.430Z,101349.91
2023-04-27T02:48:43.065Z,101356.97
2023-04-27T02:49:04.735Z,101348.22
2023-04-27T02:49:26.642Z,101347.31
2023-04-27T02:49:48.374Z,101341.22
2023-04-27T02:50:11.476Z,101356.16
2023-04-27T02:50:33.206Z,101347.31
2023-04-27T02:50:54.922Z,101338.59
2023-04-27T02:51:17.524Z,101337.72
2023-04-27T02:51:39.705Z,101343.88
2023-04-27T02:52:01.400Z,101348.31
2023-04-27T02:52:23.202Z,101349.19
2023-04-27T02:52:45.923Z,101335.16
2023-04-27T02:53:07.667Z,101343.91
2023-04-27T02:53:29.343Z,101351.84
2023-04-27T02:53:52.889Z,101350.09
2023-04-27T02:54:14.553Z,101343.91
2023-04-27T02:54:39.295Z,101335.25
2023-04-27T02:55:01.047Z,101346.59
2023-04-27T02:55:22.674Z,101344.88
2023-04-27T02:55:48.168Z,101350.19
2023-04-27T02:56:11.051Z,101339.56
2023-04-27T02:56:32.725Z,101343.91
2023-04-27T02:56:54.697Z,101343.09
2023-04-27T02:57:16.363Z,101336.97
2023-04-27T02:57:39.047Z,101343.22
2023-04-27T02:58:00.953Z,101336.25
2023-04-27T02:58:22.582Z,101343.34
2023-04-27T02:58:44.886Z,101343.34
2023-04-27T02:59:07.584Z,101326.66
2023-04-27T02:59:29.266Z,101339.91
2023-04-27T02:59:51.048Z,101338.13
2023-04-27T03:00:13.560Z,101340.69
2023-04-27T03:00:36.293Z,101333.53
2023-04-27T03:00:57.953Z,101328.31
2023-04-27T03:01:19.707Z,101324.88
2023-04-27T03:01:41.643Z,101340.69
2023-04-27T03:02:04.466Z,101338.91
2023-04-27T03:02:26.183Z,101338.91
2023-04-27T03:02:48.008Z,101332.81
2023-04-27T03:03:10.038Z,101337.28
2023-04-27T03:03:32.839Z,101344.44
2023-04-27T03:03:54.853Z,101335.59
2023-04-27T03:04:17.739Z,101330.31
2023-04-27T03:04:39.518Z,101341.81
2023-04-27T03:05:02.096Z,101328.56
2023-04-27T03:05:26.041Z,101340.03
2023-04-27T03:05:47.686Z,101337.34
2023-04-27T03:06:09.366Z,101336.41
2023-04-27T03:06:31.951Z,101340.03
2023-04-27T03:06:53.496Z,101336.50
2023-04-27T03:07:15.252Z,101340.00
2023-04-27T03:07:36.888Z,101329.41
2023-04-27T03:07:59.589Z,101311.13
2023-04-27T03:08:21.181Z,101339.13
2023-04-27T03:08:42.857Z,101339.94
2023-04-27T03:09:05.552Z,101337.38
2023-04-27T03:09:27.251Z,101344.47
2023-04-27T03:09:50.310Z,101336.50
2023-04-27T03:10:12.154Z,101318.09
2023-04-27T03:10:33.741Z,101332.97
2023-04-27T03:10:56.333Z,101333.88
2023-04-27T03:11:18.010Z,101339.16
2023-04-27T03:11:39.773Z,101332.09
2023-04-27T03:12:02.816Z,101334.72
2023-04-27T03:12:25.561Z,101326.72
2023-04-27T03:12:47.224Z,101332.97
2023-04-27T03:13:08.818Z,101333.94
2023-04-27T03:13:30.402Z,101334.78
2023-04-27T03:13:52.989Z,101332.16
2023-04-27T03:14:14.665Z,101333.94
2023-04-27T03:14:36.462Z,101338.34
2023-04-27T03:15:00.008Z,101333.09
2023-04-27T03:15:22.612Z,101323.44
2023-04-27T03:15:44.315Z,101335.72
2023-04-27T03:16:07.115Z,101329.53
2023-04-27T03:16:28.929Z,101340.97
2023-04-27T03:16:51.889Z,101339.16
2023-04-27T03:17:14.779Z,101331.28
2023-04-27T03:17:36.877Z,101338.34
2023-04-27T03:17:58.763Z,101334.84
2023-04-27T03:18:22.010Z,101333.06
2023-04-27T03:18:43.706Z,101334.84
2023-04-27T03:19:06.166Z,101335.81
2023-04-27T03:19:28.900Z,101337.59
2023-04-27T03:19:53.612Z,101336.72
2023-04-27T03:20:19.154Z,101340.22
2023-04-27T03:20:41.373Z,101329.63
2023-04-27T03:21:07.476Z,101335.75
2023-04-27T03:21:29.132Z,101339.34
2023-04-27T03:21:51.011Z,101334.94
2023-04-27T03:22:13.634Z,101338.41
2023-04-27T03:22:37.260Z,101349.06
2023-04-27T03:22:58.853Z,101339.34
2023-04-27T03:23:20.589Z,101318.41
2023-04-27T03:23:43.610Z,101342.88
2023-04-27T03:24:06.001Z,101336.69
2023-04-27T03:24:27.626Z,101328.94
2023-04-27T03:24:50.667Z,101343.78
2023-04-27T03:25:12.421Z,101345.59
2023-04-27T03:25:35.003Z,101342.09
2023-04-27T03:25:56.708Z,101342.09
2023-04-27T03:26:18.657Z,101336.09
2023-04-27T03:26:40.229Z,101342.16
2023-04-27T03:27:03.230Z,101331.72
2023-04-27T03:27:24.878Z,101336.84
2023-04-27T03:27:46.494Z,101342.09
2023-04-27T03:28:08.380Z,101344.75
2023-04-27T03:28:29.978Z,101341.16
2023-04-27T03:28:52.547Z,101335.91
2023-04-27T03:29:14.658Z,101336.84
2023-04-27T03:29:36.699Z,101329.84
2023-04-27T03:29:59.712Z,101338.66
2023-04-27T03:30:22.830Z,101335.16
2023-04-27T03:30:44.475Z,101339.59
2023-04-27T03:31:06.475Z,101336.03
2023-04-27T03:31:28.117Z,101341.41
2023-04-27T03:31:50.916Z,101334.34
2023-04-27T03:32:12.712Z,101343.13
2023-04-27T03:32:34.499Z,101341.44
2023-04-27T03:32:56.425Z,101342.41
2023-04-27T03:33:19.275Z,101337.88
2023-04-27T03:33:41.204Z,101338.78
2023-04-27T03:34:02.822Z,101343.22
2023-04-27T03:34:24.473Z,101319.53
2023-04-27T03:34:46.446Z,101352.06
2023-04-27T03:35:10.114Z,101350.38
2023-04-27T03:35:31.740Z,101348.59
2023-04-27T03:35:56.968Z,101351.16
2023-04-27T03:36:19.578Z,101345.88
2023-04-27T03:36:41.319Z,101342.41
2023-04-27T03:37:06.332Z,101342.41
2023-04-27T03:37:32.638Z,101345.09
2023-04-27T03:37:55.352Z,101344.28
2023-04-27T03:38:17.105Z,101339.88
2023-04-27T03:38:39.002Z,101338.28
2023-04-27T03:39:01.241Z,101346.94
2023-04-27T03:39:23.964Z,101345.16
2023-04-27T03:39:45.735Z,101339.84
2023-04-27T03:40:10.338Z,101343.41
2023-04-27T03:40:31.943Z,101342.50
2023-04-27T03:40:55.062Z,101343.41
2023-04-27T03:41:16.719Z,101340.78
2023-04-27T03:41:38.425Z,101340.78
2023-04-27T03:42:00.108Z,101339.91
2023-04-27T03:42:22.789Z,101343.50
2023-04-27T03:42:44.961Z,101341.78
2023-04-27T03:43:06.847Z,101345.22
2023-04-27T03:43:29.070Z,101339.91
2023-04-27T03:43:52.874Z,101336.47
2023-04-27T03:44:15.816Z,101340.91
2023-04-27T03:44:38.604Z,101338.25
2023-04-27T03:45:01.119Z,101342.72
2023-04-27T03:45:22.783Z,101344.44
2023-04-27T03:45:45.421Z,101347.06
2023-04-27T03:46:08.461Z,101346.16
2023-04-27T03:46:30.302Z,101344.47
2023-04-27T03:46:52.272Z,101338.34
2023-04-27T03:47:14.870Z,101340.13
2023-04-27T03:47:37.172Z,101344.66
2023-04-27T03:47:58.888Z,101342.06
2023-04-27T03:48:21.130Z,101341.13
2023-04-27T03:48:43.961Z,101340.19
2023-04-27T03:49:05.835Z,101338.38
2023-04-27T03:49:28.065Z,101339.25
2023-04-27T03:49:50.915Z,101327.84
2023-04-27T03:50:13.479Z,101347.22
2023-04-27T03:50:35.321Z,101340.19
2023-04-27T03:50:56.959Z,101333.97
2023-04-27T03:51:19.133Z,101342.00
2023-04-27T03:51:43.941Z,101338.44
2023-04-27T03:52:05.911Z,101338.47
2023-04-27T03:52:29.482Z,101338.53
2023-04-27T03:52:51.177Z,101326.28
2023-04-27T03:53:13.514Z,101333.31
2023-04-27T03:53:38.258Z,101316.72
2023-04-27T03:54:01.333Z,101336.00
2023-04-27T03:54:23.722Z,101338.53
2023-04-27T03:54:45.489Z,101345.72
2023-04-27T03:55:10.670Z,101344.75
2023-04-27T03:55:37.584Z,101346.50
2023-04-27T03:55:59.476Z,101347.41
2023-04-27T03:56:22.727Z,101346.50
2023-04-27T03:56:44.470Z,101349.97
2023-04-27T03:57:06.623Z,101349.16
2023-04-27T03:57:30.620Z,101347.41
2023-04-27T03:57:53.204Z,101321.16
2023-04-27T03:58:17.342Z,101342.97
2023-04-27T03:59:04.613Z,101347.31
2023-04-27T03:59:30.747Z,101347.47
2023-04-27T03:59:52.531Z,101352.81
2023-04-27T04:00:15.740Z,101350.16
2023-04-27T04:00:37.962Z,101343.19
2023-04-27T04:01:00.510Z,101348.38
2023-04-27T04:01:24.764Z,101349.25
2023-04-27T04:01:46.389Z,101353.69
2023-04-27T04:02:09.542Z,101351.91
2023-04-27T04:02:33.193Z,101350.13
2023-04-27T04:02:55.119Z,101353.66
2023-04-27T04:03:17.455Z,101352.81
2023-04-27T04:03:39.519Z,101353.69
2023-04-27T04:04:04.325Z,101358.13
2023-04-27T04:04:27.038Z,101352.00
2023-04-27T04:04:48.988Z,101349.34
2023-04-27T04:05:10.948Z,101359.06
2023-04-27T04:05:33.663Z,101355.56
2023-04-27T04:05:55.315Z,101359.06
2023-04-27T04:06:17.360Z,101351.97
2023-04-27T04:06:40.067Z,101357.28
2023-04-27T04:07:03.074Z,101353.75
2023-04-27T04:07:24.718Z,101350.22
2023-04-27T04:07:46.376Z,101355.53
2023-04-27T04:08:09.729Z,101363.50
2023-04-27T04:08:34.025Z,101352.88
2023-04-27T04:08:58.009Z,101364.38
2023-04-27T04:09:23.956Z,101364.38
2023-04-27T04:09:46.852Z,101362.63
2023-04-27T04:10:11.386Z,101361.72
2023-04-27T04:10:33.082Z,101364.38
2023-04-27T04:10:54.771Z,101353.84
2023-04-27T04:11:17.501Z,101359.06
2023-04-27T04:11:39.235Z,101367.91
2023-04-27T04:12:02.040Z,101360.78
2023-04-27T04:12:24.157Z,101363.44
2023-04-27T04:12:46.856Z,101361.66
2023-04-27T04:13:08.886Z,101363.50
2023-04-27T04:13:31.584Z,101367.03
2023-04-27T04:13:54.597Z,101335.47
2023-04-27T04:14:16.327Z,101366.13
2023-04-27T04:14:38.044Z,101360.78
2023-04-27T04:14:59.847Z,101358.13
2023-04-27T04:15:23.195Z,101363.50
2023-04-27T04:15:47.110Z,101366.13
2023-04-27T04:16:09.870Z,101374.13
2023-04-27T04:16:33.578Z,101368.91
2023-04-27T04:16:56.905Z,101368.97
2023-04-27T04:17:18.669Z,101375.16
2023-04-27T04:17:41.596Z,101375.13
2023-04-27T04:18:03.724Z,101373.34